createdAt,value
2019-05-12T00:01:58.714Z,6.40
2019-05-12T00:04:28.301Z,6.40
2019-05-12T00:06:58.521Z,6.40
2019-05-12T00:09:28.354Z,6.30
2019-05-12T00:11:59.118Z,6.20
2019-05-12T00:14:28.545Z,6.20
2019-05-12T00:16:58.134Z,6.10
2019-05-12T00:19:28.520Z,6.10
2019-05-12T00:21:58.758Z,6.10
2019-05-12T00:24:28.289Z,6.10
2019-05-12T00:27:00.113Z,6.10
2019-05-12T00:29:29.396Z,6.10
2019-05-12T00:32:18.049Z,6.10
2019-05-12T00:34:48.075Z,6.10
2019-05-12T00:37:18.589Z,6.10
2019-05-12T00:39:47.980Z,6.10
2019-05-12T00:42:18.274Z,6.00
2019-05-12T00:44:47.942Z,6.00
2019-05-12T00:47:18.757Z,6.00
2019-05-12T00:49:49.538Z,6.00
2019-05-12T00:52:38.734Z,6.00
2019-05-12T00:55:08.687Z,6.00
2019-05-12T00:57:38.412Z,6.00
2019-05-12T01:00:09.805Z,6.00
2019-05-12T01:02:39.119Z,6.00
2019-05-12T01:05:09.295Z,6.00
2019-05-12T01:07:38.703Z,6.10
2019-05-12T01:10:08.895Z,6.10
2019-05-12T01:12:38.449Z,6.10
2019-05-12T01:15:09.647Z,6.00
2019-05-12T01:17:40.537Z,6.00
2019-05-12T01:20:11.165Z,6.00
2019-05-12T01:22:40.488Z,6.00
2019-05-12T01:25:09.764Z,5.90
2019-05-12T01:27:39.166Z,5.90
2019-05-12T01:30:09.064Z,5.90
2019-05-12T01:32:39.792Z,5.90
2019-05-12T01:35:10.856Z,5.90
2019-05-12T01:37:40.231Z,5.90
2019-05-12T01:40:10.088Z,5.90
2019-05-12T01:42:39.402Z,5.80
2019-05-12T01:45:09.561Z,5.80
2019-05-12T01:47:39.093Z,5.80
2019-05-12T01:50:09.291Z,5.80
2019-05-12T01:52:38.883Z,5.70
2019-05-12T01:55:08.498Z,5.70
2019-05-12T01:57:38.627Z,5.70
2019-05-12T02:00:10.361Z,5.70
2019-05-12T02:02:39.745Z,5.70
2019-05-12T02:05:11.487Z,5.60
2019-05-12T02:07:49.492Z,5.60
2019-05-12T02:10:19.306Z,5.60
2019-05-12T02:12:49.174Z,5.50
2019-05-12T02:15:19.056Z,5.50
2019-05-12T02:17:48.423Z,5.50
2019-05-12T02:20:18.588Z,5.50
2019-05-12T02:22:48.000Z,5.40
2019-05-12T02:25:18.434Z,5.40
2019-05-12T02:27:47.991Z,5.40
2019-05-12T02:30:20.264Z,5.40
2019-05-12T02:32:53.551Z,5.40
2019-05-12T02:35:19.678Z,5.30
2019-05-12T02:37:49.107Z,5.30
2019-05-12T02:40:18.818Z,5.30
2019-05-12T02:42:48.219Z,5.30
2019-05-12T02:45:18.062Z,5.30
2019-05-12T02:47:47.387Z,5.30
2019-05-12T02:50:24.769Z,5.30
2019-05-12T02:52:54.594Z,5.30
2019-05-12T02:55:25.657Z,5.30
2019-05-12T02:57:55.903Z,5.30
2019-05-12T03:00:25.295Z,5.20
2019-05-12T03:02:56.650Z,5.20
2019-05-12T03:05:27.667Z,5.20
2019-05-12T03:07:58.510Z,5.20
2019-05-12T03:10:27.809Z,5.20
2019-05-12T03:12:57.206Z,5.20
2019-05-12T03:15:26.710Z,5.20
2019-05-12T03:17:56.065Z,5.20
2019-05-12T03:20:25.445Z,5.10
2019-05-12T03:22:55.523Z,5.20
2019-05-12T03:25:29.672Z,5.20
2019-05-12T03:27:55.948Z,5.10
2019-05-12T03:30:28.916Z,5.10
2019-05-12T03:32:57.937Z,5.10
2019-05-12T03:35:33.531Z,5.10
2019-05-12T03:37:58.236Z,5.10
2019-05-12T03:40:27.524Z,5.10
2019-05-12T03:42:56.984Z,5.10
2019-05-12T03:45:26.859Z,5.00
2019-05-12T03:47:56.164Z,5.10
2019-05-12T03:50:25.560Z,5.00
2019-05-12T03:52:56.613Z,5.00
2019-05-12T03:55:35.480Z,5.00
2019-05-12T03:57:56.773Z,5.00
2019-05-12T04:00:26.868Z,5.00
2019-05-12T04:02:56.249Z,5.00
2019-05-12T04:05:25.594Z,5.10
2019-05-12T04:07:54.984Z,5.10
2019-05-12T04:10:24.881Z,5.20
2019-05-12T04:12:54.902Z,5.20
2019-05-12T04:15:25.503Z,5.20
2019-05-12T04:17:55.121Z,5.20
2019-05-12T04:20:25.426Z,5.30
2019-05-12T04:22:55.058Z,5.40
2019-05-12T04:25:25.189Z,5.50
2019-05-12T04:27:54.684Z,5.60
2019-05-12T04:30:24.985Z,5.60
2019-05-12T04:32:55.289Z,5.70
2019-05-12T04:35:25.313Z,5.80
2019-05-12T04:37:55.445Z,5.80
2019-05-12T04:40:25.134Z,5.90
2019-05-12T04:42:54.960Z,6.10
2019-05-12T04:45:25.454Z,6.10
2019-05-12T04:47:55.375Z,6.30
2019-05-12T04:50:24.805Z,6.40
2019-05-12T04:52:54.967Z,6.50
2019-05-12T04:55:25.604Z,6.60
2019-05-12T04:57:55.212Z,6.80
2019-05-12T05:00:25.677Z,6.90
2019-05-12T05:02:55.464Z,7.20
2019-05-12T05:05:25.027Z,7.60
2019-05-12T05:07:56.446Z,8.00
2019-05-12T05:10:25.924Z,8.30
2019-05-12T05:12:55.358Z,8.70
2019-05-12T05:15:25.108Z,9.00
2019-05-12T05:17:54.728Z,9.30
2019-05-12T05:20:24.299Z,9.60
2019-05-12T05:22:54.187Z,9.90
2019-05-12T05:25:43.481Z,10.20
2019-05-12T05:28:14.582Z,10.50
2019-05-12T05:30:44.431Z,10.90
2019-05-12T05:33:14.587Z,11.10
2019-05-12T05:35:44.173Z,11.40
2019-05-12T05:38:18.719Z,11.60
2019-05-12T05:40:45.402Z,11.90
2019-05-12T05:43:18.676Z,12.10
2019-05-12T05:45:46.010Z,12.30
2019-05-12T05:48:15.449Z,12.70
2019-05-12T05:50:46.481Z,13.00
2019-05-12T05:53:19.650Z,13.30
2019-05-12T05:55:50.423Z,13.60
2019-05-12T05:58:17.880Z,14.00
2019-05-12T06:00:47.284Z,14.20
2019-05-12T06:03:23.078Z,14.50
2019-05-12T06:05:47.622Z,14.80
2019-05-12T06:08:20.726Z,15.30
2019-05-12T06:10:47.887Z,15.60
2019-05-12T06:13:21.317Z,16.10
2019-05-12T06:15:48.615Z,16.40
2019-05-12T06:18:17.900Z,16.80
2019-05-12T06:20:47.317Z,17.20
2019-05-12T06:23:16.612Z,17.60
2019-05-12T06:25:51.419Z,17.70
2019-05-12T06:28:16.994Z,17.90
2019-05-12T06:30:49.851Z,18.10
2019-05-12T06:33:17.402Z,18.30
2019-05-12T06:35:48.454Z,18.50
2019-05-12T06:38:17.873Z,18.80
2019-05-12T06:40:47.273Z,19.10
2019-05-12T06:43:16.630Z,19.50
2019-05-12T06:45:46.047Z,19.90
2019-05-12T06:48:19.448Z,20.20
2019-05-12T06:50:46.524Z,20.40
2019-05-12T06:53:20.196Z,20.50
2019-05-12T06:55:47.672Z,20.80
2019-05-12T06:58:26.073Z,21.20
2019-05-12T07:00:48.289Z,21.80
2019-05-12T07:03:19.336Z,22.30
2019-05-12T07:05:48.845Z,22.90
2019-05-12T07:08:26.520Z,23.50
2019-05-12T07:11:00.844Z,23.90
2019-05-12T07:13:24.641Z,24.40
2019-05-12T07:15:51.807Z,25.00
2019-05-12T07:18:31.724Z,25.30
2019-05-12T07:20:54.133Z,25.70
2019-05-12T07:23:30.140Z,26.10
2019-05-12T07:25:57.389Z,26.50
2019-05-12T07:28:30.371Z,27.00
2019-05-12T07:30:57.973Z,27.50
2019-05-12T07:33:32.849Z,28.10
2019-05-12T07:36:01.459Z,28.40
2019-05-12T07:38:34.316Z,28.50
2019-05-12T07:41:08.900Z,28.80
2019-05-12T07:43:35.445Z,29.20
2019-05-12T07:46:07.052Z,29.40
2019-05-12T07:48:40.387Z,29.50
2019-05-12T07:51:07.201Z,29.70
2019-05-12T07:53:36.522Z,29.80
2019-05-12T07:56:06.322Z,30.10
2019-05-12T07:58:35.734Z,30.60
2019-05-12T08:01:08.033Z,31.00
2019-05-12T08:03:36.258Z,31.40
2019-05-12T08:06:05.723Z,31.50
2019-05-12T08:08:35.141Z,31.50
2019-05-12T08:11:04.928Z,31.80
2019-05-12T08:13:39.363Z,32.20
2019-05-12T08:16:05.809Z,32.80
2019-05-12T08:18:37.056Z,33.10
2019-05-12T08:21:07.078Z,33.50
2019-05-12T08:23:38.101Z,33.50
2019-05-12T08:26:11.958Z,33.40
2019-05-12T08:28:40.413Z,33.10
2019-05-12T08:31:09.714Z,32.20
2019-05-12T08:33:39.016Z,31.40
2019-05-12T08:36:14.009Z,30.50
2019-05-12T08:38:39.450Z,29.70
2019-05-12T08:41:08.779Z,29.00
2019-05-12T08:43:40.653Z,28.70
2019-05-12T08:46:12.061Z,28.60
2019-05-12T08:48:40.336Z,28.40
2019-05-12T08:51:14.168Z,28.50
2019-05-12T08:53:40.711Z,28.60
2019-05-12T08:56:13.019Z,28.90
2019-05-12T08:58:50.399Z,29.50
2019-05-12T09:01:13.807Z,30.00
2019-05-12T09:03:46.930Z,30.50
2019-05-12T09:06:19.718Z,30.70
2019-05-12T09:08:49.324Z,31.10
2019-05-12T09:11:19.825Z,31.80
2019-05-12T09:13:52.711Z,32.60
2019-05-12T09:16:20.337Z,33.10
2019-05-12T09:18:49.690Z,33.30
2019-05-12T09:21:25.264Z,33.70
2019-05-12T09:23:53.228Z,34.30
2019-05-12T09:26:26.673Z,34.70
2019-05-12T09:28:54.174Z,35.10
2019-05-12T09:31:27.521Z,35.60
2019-05-12T09:33:54.670Z,35.90
2019-05-12T09:36:24.421Z,36.00
2019-05-12T09:39:01.644Z,36.00
2019-05-12T09:41:24.856Z,35.80
2019-05-12T09:43:54.235Z,35.80
2019-05-12T09:46:28.429Z,35.90
2019-05-12T09:48:55.166Z,35.70
2019-05-12T09:51:24.638Z,35.30
2019-05-12T09:53:55.477Z,35.10
2019-05-12T09:56:24.999Z,34.90
2019-05-12T09:59:01.471Z,34.40
2019-05-12T10:01:29.263Z,34.30
2019-05-12T10:03:56.605Z,34.20
2019-05-12T10:06:26.749Z,34.00
2019-05-12T10:08:56.212Z,33.70
2019-05-12T10:11:25.600Z,33.20
2019-05-12T10:13:54.932Z,32.60
2019-05-12T10:16:24.294Z,31.90
2019-05-12T10:18:53.669Z,31.40
2019-05-12T10:21:23.899Z,30.70
2019-05-12T10:24:00.262Z,30.20
2019-05-12T10:26:24.368Z,29.70
2019-05-12T10:28:58.253Z,29.30
2019-05-12T10:31:29.604Z,29.00
2019-05-12T10:34:14.774Z,28.70
2019-05-12T10:36:49.063Z,28.50
2019-05-12T10:39:17.874Z,28.30
2019-05-12T10:41:47.782Z,28.10
2019-05-12T10:44:17.339Z,27.90
2019-05-12T10:46:49.264Z,27.70
2019-05-12T10:49:18.657Z,27.70
2019-05-12T10:51:48.006Z,27.60
2019-05-12T10:54:17.361Z,27.60
2019-05-12T10:56:46.866Z,27.50
2019-05-12T10:59:29.115Z,27.40
2019-05-12T11:01:49.043Z,27.40
2019-05-12T11:04:25.075Z,27.90
2019-05-12T11:06:49.357Z,29.00
2019-05-12T11:09:21.314Z,30.20
2019-05-12T11:11:49.696Z,31.30
2019-05-12T11:14:20.331Z,32.00
2019-05-12T11:16:50.085Z,32.80
2019-05-12T11:19:19.479Z,33.60
2019-05-12T11:21:50.135Z,33.70
2019-05-12T11:24:19.454Z,34.10
2019-05-12T11:26:48.758Z,34.70
2019-05-12T11:29:18.069Z,35.00
2019-05-12T11:31:47.438Z,34.90
2019-05-12T11:34:16.911Z,34.60
2019-05-12T11:36:46.304Z,35.00
2019-05-12T11:39:15.605Z,35.40
2019-05-12T11:41:44.982Z,35.70
2019-05-12T11:44:14.384Z,35.60
2019-05-12T11:46:45.024Z,35.80
2019-05-12T11:49:14.373Z,35.90
2019-05-12T11:51:43.764Z,36.10
2019-05-12T11:54:13.669Z,36.30
2019-05-12T11:56:46.597Z,36.40
2019-05-12T11:59:14.287Z,35.50
2019-05-12T12:01:45.589Z,34.40
2019-05-12T12:04:15.509Z,33.60
2019-05-12T12:06:46.288Z,32.60
2019-05-12T12:09:18.857Z,31.80
2019-05-12T12:11:48.563Z,31.20
2019-05-12T12:14:17.938Z,30.90
2019-05-12T12:16:50.119Z,30.60
2019-05-12T12:19:18.291Z,30.50
2019-05-12T12:21:50.050Z,30.10
2019-05-12T12:24:21.422Z,29.60
2019-05-12T12:26:49.616Z,29.10
2019-05-12T12:29:18.940Z,28.80
2019-05-12T12:31:52.586Z,28.60
2019-05-12T12:34:29.806Z,28.40
2019-05-12T12:36:55.421Z,28.20
2019-05-12T12:39:24.769Z,27.90
2019-05-12T12:42:00.110Z,27.80
2019-05-12T12:44:25.677Z,27.90
2019-05-12T12:46:59.886Z,27.90
2019-05-12T12:49:29.090Z,28.10
2019-05-12T12:51:57.219Z,28.20
2019-05-12T12:54:26.810Z,28.30
2019-05-12T12:57:00.113Z,28.00
2019-05-12T12:59:27.290Z,27.60
2019-05-12T13:01:59.043Z,27.40
2019-05-12T13:04:28.920Z,26.90
2019-05-12T13:06:58.518Z,26.90
2019-05-12T13:09:27.962Z,27.10
2019-05-12T13:11:57.325Z,27.40
2019-05-12T13:14:33.687Z,26.90
2019-05-12T13:16:59.603Z,26.10
2019-05-12T13:19:29.029Z,25.60
2019-05-12T13:21:58.452Z,25.90
2019-05-12T13:24:28.048Z,26.50
2019-05-12T13:26:57.642Z,26.30
2019-05-12T13:29:34.661Z,25.70
2019-05-12T13:31:59.321Z,25.00
2019-05-12T13:34:33.548Z,24.20
2019-05-12T13:36:59.860Z,23.50
2019-05-12T13:39:29.300Z,23.00
2019-05-12T13:42:00.259Z,22.60
2019-05-12T13:44:30.341Z,22.60
2019-05-12T13:47:03.228Z,23.40
2019-05-12T13:49:36.175Z,23.60
2019-05-12T13:52:04.224Z,23.10
2019-05-12T13:54:34.133Z,22.50
2019-05-12T13:57:11.606Z,22.10
2019-05-12T13:59:35.895Z,21.70
2019-05-12T14:02:05.417Z,21.40
2019-05-12T14:04:35.090Z,21.50
2019-05-12T14:07:09.267Z,22.20
2019-05-12T14:09:36.267Z,23.00
2019-05-12T14:12:07.007Z,23.50
2019-05-12T14:14:36.481Z,23.90
2019-05-12T14:17:06.081Z,24.60
2019-05-12T14:19:37.197Z,25.30
2019-05-12T14:22:06.727Z,26.00
2019-05-12T14:24:41.971Z,26.10
2019-05-12T14:27:07.328Z,26.30
2019-05-12T14:29:36.709Z,26.40
2019-05-12T14:32:06.318Z,26.90
2019-05-12T14:34:35.746Z,27.10
2019-05-12T14:37:10.024Z,27.00
2019-05-12T14:39:40.163Z,27.10
2019-05-12T14:42:07.449Z,27.50
2019-05-12T14:44:44.091Z,27.60
2019-05-12T14:47:07.915Z,27.80
2019-05-12T14:49:37.337Z,27.60
2019-05-12T14:52:06.716Z,27.10
2019-05-12T14:54:36.178Z,26.50
2019-05-12T14:57:05.685Z,26.20
2019-05-12T14:59:39.771Z,25.50
2019-05-12T15:02:06.387Z,25.50
2019-05-12T15:04:35.889Z,25.50
2019-05-12T15:07:11.428Z,25.50
2019-05-12T15:09:40.974Z,25.60
2019-05-12T15:12:10.663Z,25.20
2019-05-12T15:14:40.253Z,24.30
2019-05-12T15:17:13.650Z,23.50
2019-05-12T15:19:43.889Z,22.90
2019-05-12T15:22:14.865Z,22.30
2019-05-12T15:24:49.270Z,22.00
2019-05-12T15:27:17.623Z,21.60
2019-05-12T15:29:49.951Z,21.30
2019-05-12T15:32:18.701Z,21.10
2019-05-12T15:34:48.288Z,21.00
2019-05-12T15:37:18.082Z,21.10
2019-05-12T15:39:47.824Z,21.00
2019-05-12T15:42:17.210Z,20.80
2019-05-12T15:44:47.382Z,20.60
2019-05-12T15:47:16.873Z,20.40
2019-05-12T15:49:46.240Z,20.30
2019-05-12T15:52:15.556Z,20.10
2019-05-12T15:54:47.239Z,20.00
2019-05-12T15:57:15.940Z,19.90
2019-05-12T15:59:45.436Z,19.70
2019-05-12T16:02:17.004Z,19.60
2019-05-12T16:04:48.608Z,19.50
2019-05-12T16:07:18.620Z,19.40
2019-05-12T16:09:57.547Z,19.30
2019-05-12T16:12:27.136Z,19.20
2019-05-12T16:14:57.611Z,19.10
2019-05-12T16:17:27.228Z,19.00
2019-05-12T16:20:15.834Z,18.90
2019-05-12T16:22:45.524Z,18.70
2019-05-12T16:25:15.632Z,18.60
2019-05-12T16:27:45.032Z,18.40
2019-05-12T16:30:14.867Z,18.30
2019-05-12T16:32:47.951Z,18.20
2019-05-12T16:35:20.139Z,18.10
2019-05-12T16:37:47.124Z,18.00
2019-05-12T16:40:16.873Z,18.00
2019-05-12T16:42:52.555Z,17.90
2019-05-12T16:45:20.092Z,17.80
2019-05-12T16:47:49.654Z,17.70
2019-05-12T16:50:24.728Z,17.60
2019-05-12T16:52:50.624Z,17.50
2019-05-12T16:55:21.149Z,17.30
2019-05-12T16:57:52.967Z,17.20
2019-05-12T17:00:24.209Z,17.00
2019-05-12T17:02:57.802Z,16.90
2019-05-12T17:05:24.160Z,16.80
2019-05-12T17:07:55.830Z,16.80
2019-05-12T17:10:24.684Z,16.70
2019-05-12T17:12:54.426Z,16.60
2019-05-12T17:15:23.852Z,16.50
2019-05-12T17:17:59.237Z,16.40
2019-05-12T17:20:24.361Z,16.30
2019-05-12T17:22:55.147Z,16.20
2019-05-12T17:25:24.637Z,16.00
2019-05-12T17:27:58.239Z,15.90
2019-05-12T17:30:25.236Z,15.90
2019-05-12T17:32:58.954Z,15.70
2019-05-12T17:35:30.177Z,15.70
2019-05-12T17:37:56.769Z,15.60
2019-05-12T17:40:26.175Z,15.50
2019-05-12T17:42:57.797Z,15.40
2019-05-12T17:45:26.810Z,15.30
2019-05-12T17:48:02.926Z,15.20
2019-05-12T17:50:27.635Z,15.10
2019-05-12T17:53:00.238Z,15.00
2019-05-12T17:55:28.068Z,14.90
2019-05-12T17:57:57.968Z,14.80
2019-05-12T18:00:27.402Z,14.70
2019-05-12T18:03:14.520Z,14.60
2019-05-12T18:05:27.800Z,14.50
2019-05-12T18:07:58.427Z,14.40
2019-05-12T18:10:32.568Z,14.30
2019-05-12T18:12:58.747Z,14.30
2019-05-12T18:15:33.421Z,14.20
2019-05-12T18:17:59.403Z,14.10
2019-05-12T18:20:31.115Z,14.00
2019-05-12T18:22:59.883Z,14.00
2019-05-12T18:25:32.148Z,13.90
2019-05-12T18:28:00.370Z,13.80
2019-05-12T18:30:29.985Z,13.70
2019-05-12T18:33:04.520Z,13.60
2019-05-12T18:35:30.542Z,13.50
2019-05-12T18:37:59.938Z,13.40
2019-05-12T18:40:29.373Z,13.30
2019-05-12T18:42:58.580Z,13.20
2019-05-12T18:45:28.008Z,13.20
2019-05-12T18:47:57.436Z,13.10
2019-05-12T18:50:31.352Z,13.00
2019-05-12T18:52:58.199Z,12.90
2019-05-12T18:55:29.240Z,12.80
2019-05-12T18:57:58.548Z,12.80
2019-05-12T19:00:27.946Z,12.60
2019-05-12T19:02:59.763Z,12.50
2019-05-12T19:05:30.875Z,12.50
2019-05-12T19:07:59.315Z,12.40
2019-05-12T19:10:28.627Z,12.30
2019-05-12T19:13:01.952Z,12.30
2019-05-12T19:15:30.539Z,12.20
2019-05-12T19:17:59.968Z,12.20
2019-05-12T19:20:31.267Z,12.10
2019-05-12T19:23:03.401Z,12.00
2019-05-12T19:25:35.945Z,12.00
2019-05-12T19:28:10.091Z,11.90
2019-05-12T19:30:36.712Z,11.80
2019-05-12T19:33:10.699Z,11.70
2019-05-12T19:35:38.161Z,11.60
2019-05-12T19:38:07.572Z,11.60
2019-05-12T19:40:36.978Z,11.50
2019-05-12T19:43:08.390Z,11.50
2019-05-12T19:45:37.363Z,11.40
2019-05-12T19:48:08.146Z,11.40
2019-05-12T19:50:37.547Z,11.30
2019-05-12T19:53:10.012Z,11.20
2019-05-12T19:55:37.908Z,11.20
2019-05-12T19:58:12.650Z,11.10
2019-05-12T20:00:39.775Z,11.00
2019-05-12T20:03:09.184Z,11.00
2019-05-12T20:05:38.566Z,10.90
2019-05-12T20:08:08.009Z,10.80
2019-05-12T20:10:44.681Z,10.80
2019-05-12T20:13:08.574Z,10.70
2019-05-12T20:15:43.687Z,10.70
2019-05-12T20:18:14.637Z,10.60
2019-05-12T20:20:44.882Z,10.60
2019-05-12T20:23:14.448Z,10.50
2019-05-12T20:25:44.374Z,10.50
2019-05-12T20:28:14.415Z,10.50
2019-05-12T20:30:44.398Z,10.40
2019-05-12T20:33:13.940Z,10.30
2019-05-12T20:35:45.158Z,10.30
2019-05-12T20:38:16.386Z,10.20
2019-05-12T20:40:45.712Z,10.20
2019-05-12T20:43:15.089Z,10.10
2019-05-12T20:45:45.791Z,10.10
2019-05-12T20:48:19.732Z,10.00
2019-05-12T20:50:46.375Z,10.00
2019-05-12T20:53:15.700Z,9.90
2019-05-12T20:55:45.091Z,9.90
2019-05-12T20:58:14.388Z,9.80
2019-05-12T21:00:45.630Z,9.80
2019-05-12T21:03:14.662Z,9.80
2019-05-12T21:05:43.975Z,9.70
2019-05-12T21:08:15.385Z,9.60
2019-05-12T21:10:44.282Z,9.60
2019-05-12T21:13:14.741Z,9.50
2019-05-12T21:15:45.770Z,9.50
2019-05-12T21:18:15.382Z,9.50
2019-05-12T21:20:46.419Z,9.40
2019-05-12T21:23:15.781Z,9.40
2019-05-12T21:25:52.113Z,9.30
2019-05-12T21:28:16.160Z,9.30
2019-05-12T21:30:48.179Z,9.20
2019-05-12T21:33:16.512Z,9.20
2019-05-12T21:35:46.309Z,9.10
2019-05-12T21:38:18.831Z,9.10
2019-05-12T21:40:46.792Z,9.00
2019-05-12T21:43:16.116Z,9.00
2019-05-12T21:45:45.475Z,8.90
2019-05-12T21:48:23.353Z,8.90
2019-05-12T21:50:45.828Z,8.80
2019-05-12T21:53:19.197Z,8.70
2019-05-12T21:55:46.147Z,8.70
2019-05-12T21:58:15.501Z,8.60
2019-05-12T22:00:50.600Z,8.60
2019-05-12T22:03:20.565Z,8.50
2019-05-12T22:05:54.635Z,8.50
2019-05-12T22:08:25.305Z,8.40
2019-05-12T22:10:54.281Z,8.40
2019-05-12T22:13:23.606Z,8.30
2019-05-12T22:15:57.066Z,8.30
2019-05-12T22:18:23.995Z,8.20
2019-05-12T22:21:01.151Z,8.20
2019-05-12T22:23:24.868Z,8.10
2019-05-12T22:25:58.033Z,8.10
2019-05-12T22:28:26.681Z,8.00
2019-05-12T22:30:56.088Z,8.00
2019-05-12T22:33:25.470Z,7.90
2019-05-12T22:36:04.954Z,7.90
2019-05-12T22:38:25.859Z,7.80
2019-05-12T22:40:59.422Z,7.80
2019-05-12T22:43:26.239Z,7.80
2019-05-12T22:45:55.542Z,7.70
2019-05-12T22:48:29.661Z,7.60
2019-05-12T22:50:55.927Z,7.60
2019-05-12T22:53:29.719Z,7.50
2019-05-12T22:55:56.307Z,7.50
2019-05-12T22:58:25.709Z,7.50
2019-05-12T23:01:00.684Z,7.40
2019-05-12T23:03:26.164Z,7.40
2019-05-12T23:05:59.802Z,7.40
2019-05-12T23:08:26.709Z,7.30
2019-05-12T23:10:56.220Z,7.30
2019-05-12T23:13:25.584Z,7.20
2019-05-12T23:15:54.959Z,7.20
2019-05-12T23:18:30.577Z,7.20
2019-05-12T23:20:56.990Z,7.20
2019-05-12T23:23:26.344Z,7.10
2019-05-12T23:26:00.560Z,7.10
2019-05-12T23:28:26.652Z,7.00
2019-05-12T23:30:56.069Z,7.00
2019-05-12T23:33:35.282Z,7.00
2019-05-12T23:35:56.411Z,6.90
2019-05-12T23:38:25.826Z,6.90
2019-05-12T23:40:55.228Z,6.90
2019-05-12T23:43:24.509Z,6.90
2019-05-12T23:45:53.765Z,6.80
2019-05-12T23:48:23.089Z,6.80
2019-05-12T23:50:54.282Z,6.80
2019-05-12T23:53:24.299Z,6.80
2019-05-12T23:55:54.113Z,6.70
2019-05-12T23:58:23.713Z,6.70
